createdAt,value
2018-07-14T00:00:46.996Z,18.60
2018-07-14T00:03:15.483Z,18.60
2018-07-14T00:05:43.964Z,18.90
2018-07-14T00:08:12.402Z,18.80
2018-07-14T00:10:40.857Z,18.70
2018-07-14T00:13:09.360Z,18.70
2018-07-14T00:15:37.942Z,18.60
2018-07-14T00:18:06.402Z,18.60
2018-07-14T00:20:34.843Z,18.70
2018-07-14T00:23:03.303Z,18.50
2018-07-14T00:25:37.047Z,18.50
2018-07-14T00:28:05.827Z,18.50
2018-07-14T00:30:34.276Z,18.50
2018-07-14T00:33:02.751Z,18.50
2018-07-14T00:35:31.201Z,18.40
2018-07-14T00:37:59.668Z,18.30
2018-07-14T00:40:28.143Z,18.30
2018-07-14T00:42:56.868Z,18.30
2018-07-14T00:45:25.346Z,18.50
2018-07-14T00:47:53.810Z,18.50
2018-07-14T00:50:22.539Z,18.50
2018-07-14T00:52:51.026Z,18.50
2018-07-14T00:55:19.747Z,18.60
2018-07-14T00:57:48.556Z,18.70
2018-07-14T01:00:17.051Z,18.90
2018-07-14T01:02:45.549Z,18.90
2018-07-14T01:05:13.995Z,18.80
2018-07-14T01:07:42.463Z,18.80
2018-07-14T01:10:10.935Z,18.50
2018-07-14T01:15:07.549Z,18.60
2018-07-14T01:17:36.021Z,18.70
2018-07-14T01:20:04.463Z,18.70
2018-07-14T01:22:32.938Z,18.50
2018-07-14T01:25:01.384Z,18.30
2018-07-14T01:27:29.857Z,18.30
2018-07-14T01:29:58.280Z,18.30
2018-07-14T01:32:26.718Z,18.20
2018-07-14T01:34:55.455Z,18.40
2018-07-14T01:37:23.894Z,18.40
2018-07-14T01:39:52.560Z,18.20
2018-07-14T01:42:21.057Z,18.20
2018-07-14T01:44:49.778Z,18.20
2018-07-14T01:47:18.310Z,18.10
2018-07-14T01:49:46.755Z,18.10
2018-07-14T01:52:15.266Z,18.10
2018-07-14T01:54:43.753Z,18.10
2018-07-14T01:57:12.244Z,18.10
2018-07-14T01:59:40.730Z,18.10
2018-07-14T02:02:09.499Z,18.00
2018-07-14T02:04:37.951Z,18.10
2018-07-14T02:07:06.765Z,18.10
2018-07-14T02:09:35.234Z,18.10
2018-07-14T02:12:03.855Z,18.00
2018-07-14T02:14:32.318Z,18.00
2018-07-14T02:17:00.801Z,18.00
2018-07-14T02:19:29.534Z,18.00
2018-07-14T02:21:58.247Z,18.00
2018-07-14T02:24:26.694Z,18.00
2018-07-14T02:26:55.157Z,18.20
2018-07-14T02:29:23.591Z,18.30
2018-07-14T02:31:52.048Z,18.40
2018-07-14T02:34:20.482Z,18.30
2018-07-14T02:36:48.928Z,18.20
2018-07-14T02:39:17.403Z,18.10
2018-07-14T02:41:45.870Z,17.90
2018-07-14T02:44:14.357Z,17.70
2018-07-14T02:46:42.803Z,17.70
2018-07-14T02:49:11.271Z,17.70
2018-07-14T02:51:39.689Z,17.70
2018-07-14T02:54:08.171Z,17.80
2018-07-14T02:56:36.875Z,17.90
2018-07-14T02:59:05.527Z,17.90
2018-07-14T03:01:33.963Z,18.10
2018-07-14T03:04:02.410Z,18.10
2018-07-14T03:06:30.902Z,18.00
2018-07-14T03:08:59.356Z,18.10
2018-07-14T03:11:27.790Z,18.30
2018-07-14T03:13:56.603Z,18.20
2018-07-14T03:16:25.089Z,18.20
2018-07-14T03:18:53.870Z,18.20
2018-07-14T03:21:22.327Z,18.10
2018-07-14T03:23:50.951Z,18.00
2018-07-14T03:26:19.442Z,17.90
2018-07-14T03:28:47.958Z,17.80
2018-07-14T03:31:17.240Z,17.80
2018-07-14T03:33:46.508Z,17.80
2018-07-14T03:36:16.263Z,17.70
2018-07-14T03:38:46.898Z,17.70
2018-07-14T03:41:18.298Z,17.80
2018-07-14T03:43:49.950Z,17.80
2018-07-14T03:46:19.916Z,17.80
2018-07-14T03:48:51.243Z,17.90
2018-07-14T03:51:19.800Z,17.80
2018-07-14T03:53:48.312Z,17.90
2018-07-14T03:56:16.815Z,18.00
2018-07-14T03:58:45.835Z,18.00
2018-07-14T04:01:14.305Z,18.10
2018-07-14T04:03:43.054Z,18.00
2018-07-14T04:06:11.531Z,18.10
2018-07-14T04:08:40.032Z,18.10
2018-07-14T04:11:08.505Z,18.20
2018-07-14T04:13:37.001Z,18.30
2018-07-14T04:16:05.764Z,18.20
2018-07-14T04:18:34.222Z,18.40
2018-07-14T04:23:30.858Z,18.40
2018-07-14T04:25:59.307Z,18.40
2018-07-14T04:28:27.792Z,18.50
2018-07-14T04:30:56.303Z,18.80
2018-07-14T04:33:24.821Z,18.70
2018-07-14T04:35:53.275Z,18.80
2018-07-14T04:38:21.772Z,18.90
2018-07-14T04:40:50.240Z,18.80
2018-07-14T04:43:18.721Z,18.90
2018-07-14T04:45:47.217Z,19.10
2018-07-14T04:48:15.727Z,19.20
2018-07-14T04:50:44.220Z,19.40
2018-07-14T04:53:12.734Z,19.70
2018-07-14T04:55:41.164Z,19.80
2018-07-14T04:58:09.656Z,19.80
2018-07-14T05:00:38.151Z,19.90
2018-07-14T05:03:06.616Z,20.00
2018-07-14T05:05:35.087Z,20.10
2018-07-14T05:08:03.578Z,19.80
2018-07-14T05:10:32.042Z,19.70
2018-07-14T05:13:00.535Z,19.70
2018-07-14T05:15:29.058Z,19.60
2018-07-14T05:17:57.572Z,19.90
2018-07-14T05:20:26.060Z,19.90
2018-07-14T05:22:54.542Z,20.00
2018-07-14T05:25:23.045Z,19.70
2018-07-14T05:27:51.491Z,19.70
2018-07-14T05:30:19.977Z,19.70
2018-07-14T05:32:48.431Z,19.70
2018-07-14T05:35:16.918Z,19.70
2018-07-14T05:37:45.376Z,19.80
2018-07-14T05:40:13.860Z,19.90
2018-07-14T05:42:42.317Z,20.00
2018-07-14T05:45:10.798Z,19.90
2018-07-14T05:47:39.540Z,19.80
2018-07-14T05:50:08.066Z,19.70
2018-07-14T05:52:36.548Z,19.70
2018-07-14T05:55:05.410Z,19.70
2018-07-14T05:57:33.905Z,19.80
2018-07-14T06:00:02.391Z,19.90
2018-07-14T06:02:30.968Z,20.00
2018-07-14T06:04:59.455Z,19.90
2018-07-14T06:07:27.938Z,20.00
2018-07-14T06:09:56.406Z,20.20
2018-07-14T06:12:24.876Z,20.40
2018-07-14T06:14:53.447Z,20.80
2018-07-14T06:17:21.929Z,21.00
2018-07-14T06:19:50.408Z,21.10
2018-07-14T06:22:18.891Z,21.20
2018-07-14T06:24:47.431Z,21.40
2018-07-14T06:27:16.164Z,21.60
2018-07-14T06:29:44.653Z,21.50
2018-07-14T06:32:13.123Z,21.80
2018-07-14T06:34:41.611Z,22.00
2018-07-14T06:37:10.080Z,21.80
2018-07-14T06:39:38.548Z,21.90
2018-07-14T06:42:07.051Z,21.60
2018-07-14T06:44:35.536Z,21.40
2018-07-14T06:47:03.999Z,21.10
2018-07-14T06:49:32.524Z,21.20
2018-07-14T06:52:01.618Z,21.40
2018-07-14T06:54:30.163Z,21.50
2018-07-14T06:56:58.847Z,21.70
2018-07-14T06:59:27.395Z,22.00
2018-07-14T07:01:55.885Z,22.30
2018-07-14T07:04:24.630Z,22.20
2018-07-14T07:06:53.125Z,22.40
2018-07-14T07:09:21.609Z,22.50
2018-07-14T07:11:50.331Z,22.90
2018-07-14T07:14:19.199Z,23.10
2018-07-14T07:16:47.644Z,23.10
2018-07-14T07:19:16.117Z,23.40
2018-07-14T07:21:44.598Z,23.30
2018-07-14T07:24:13.134Z,23.30
2018-07-14T07:26:41.579Z,23.70
2018-07-14T07:29:10.079Z,24.10
2018-07-14T07:31:38.526Z,24.30
2018-07-14T07:34:07.051Z,24.40
2018-07-14T07:36:35.482Z,24.30
2018-07-14T07:39:04.726Z,24.20
2018-07-14T07:41:33.138Z,24.50
2018-07-14T07:44:01.571Z,24.60
2018-07-14T07:46:30.052Z,24.90
2018-07-14T07:48:58.751Z,25.10
2018-07-14T07:51:27.219Z,25.10
2018-07-14T07:53:55.914Z,25.40
2018-07-14T07:56:24.395Z,25.60
2018-07-14T07:58:52.837Z,25.80
2018-07-14T08:01:21.300Z,25.80
2018-07-14T08:03:49.731Z,25.80
2018-07-14T08:06:18.419Z,25.70
2018-07-14T08:08:47.191Z,25.90
2018-07-14T08:11:15.642Z,26.00
2018-07-14T08:13:44.078Z,26.10
2018-07-14T08:16:12.608Z,26.30
2018-07-14T08:18:41.282Z,26.40
2018-07-14T08:21:09.758Z,26.30
2018-07-14T08:23:38.190Z,26.20
2018-07-14T08:26:06.735Z,26.40
2018-07-14T08:28:35.196Z,26.10
2018-07-14T08:31:03.733Z,26.50
2018-07-14T08:33:32.187Z,26.70
2018-07-14T08:36:00.716Z,26.50
2018-07-14T08:38:29.146Z,26.40
2018-07-14T08:40:57.617Z,26.60
2018-07-14T08:43:26.059Z,26.70
2018-07-14T08:45:54.517Z,26.70
2018-07-14T08:48:22.958Z,26.80
2018-07-14T08:50:51.417Z,27.00
2018-07-14T08:53:20.167Z,27.10
2018-07-14T08:55:48.647Z,27.20
2018-07-14T08:58:17.155Z,27.10
2018-07-14T09:00:45.559Z,27.50
2018-07-14T09:03:14.016Z,27.20
2018-07-14T09:05:42.470Z,27.60
2018-07-14T09:08:10.941Z,28.00
2018-07-14T09:10:39.705Z,28.20
2018-07-14T09:13:08.136Z,28.40
2018-07-14T09:15:36.619Z,28.40
2018-07-14T09:18:05.134Z,28.10
2018-07-14T09:20:33.612Z,28.20
2018-07-14T09:23:02.631Z,28.30
2018-07-14T09:25:31.437Z,27.20
2018-07-14T09:28:00.148Z,27.20
2018-07-14T09:30:28.627Z,27.80
2018-07-14T09:32:57.065Z,28.20
2018-07-14T09:35:25.638Z,28.20
2018-07-14T09:37:54.113Z,28.30
2018-07-14T09:40:22.793Z,28.30
2018-07-14T09:42:51.248Z,28.40
2018-07-14T09:45:20.132Z,28.10
2018-07-14T09:47:48.639Z,28.30
2018-07-14T09:50:17.078Z,28.40
2018-07-14T09:55:13.795Z,28.30
2018-07-14T09:57:42.468Z,28.30
2018-07-14T10:00:15.182Z,28.90
2018-07-14T10:02:43.608Z,29.30
2018-07-14T10:05:12.087Z,29.60
2018-07-14T10:07:40.535Z,29.40
2018-07-14T10:10:09.092Z,29.50
2018-07-14T10:12:37.832Z,29.70
2018-07-14T10:15:06.983Z,29.70
2018-07-14T10:20:03.679Z,29.50
2018-07-14T10:22:32.429Z,29.30
2018-07-14T10:25:00.910Z,29.20
2018-07-14T10:27:29.427Z,29.40
2018-07-14T10:29:57.879Z,29.30
2018-07-14T10:32:26.350Z,29.70
2018-07-14T10:34:54.822Z,29.50
2018-07-14T10:37:23.295Z,29.90
2018-07-14T10:39:51.952Z,30.20
2018-07-14T10:42:20.506Z,30.30
2018-07-14T10:44:48.959Z,30.10
2018-07-14T10:47:17.724Z,30.10
2018-07-14T10:49:46.220Z,30.40
2018-07-14T10:52:14.700Z,30.60
2018-07-14T10:54:43.154Z,30.70
2018-07-14T10:57:11.761Z,30.10
2018-07-14T10:59:40.206Z,29.80
2018-07-14T11:04:37.136Z,30.40
2018-07-14T11:07:05.645Z,30.60
2018-07-14T11:09:34.453Z,30.50
2018-07-14T11:12:02.994Z,30.40
2018-07-14T11:14:31.462Z,30.30
2018-07-14T11:16:59.962Z,30.10
2018-07-14T11:21:56.641Z,30.60
2018-07-14T11:24:25.150Z,29.90
2018-07-14T11:26:53.881Z,30.30
2018-07-14T11:29:22.575Z,30.70
2018-07-14T11:31:51.095Z,31.00
2018-07-14T11:34:19.736Z,30.90
2018-07-14T11:36:48.200Z,31.00
2018-07-14T11:39:16.666Z,30.90
2018-07-14T11:46:41.510Z,30.70
2018-07-14T11:49:09.959Z,30.80
2018-07-14T11:51:38.441Z,30.60
2018-07-14T11:54:07.237Z,31.10
2018-07-14T11:56:35.708Z,31.30
2018-07-14T12:01:32.593Z,30.70
2018-07-14T12:04:01.049Z,31.10
2018-07-14T12:06:29.575Z,31.10
2018-07-14T12:08:58.730Z,31.50
2018-07-14T12:11:36.366Z,31.60
2018-07-14T12:14:05.107Z,31.60
2018-07-14T12:16:33.817Z,31.40
2018-07-14T12:19:02.341Z,31.40
2018-07-14T12:21:31.163Z,31.00
2018-07-14T12:23:59.708Z,31.30
2018-07-14T12:26:28.214Z,31.20
2018-07-14T12:28:56.670Z,30.90
2018-07-14T12:31:25.829Z,30.70
2018-07-14T12:33:54.282Z,30.80
2018-07-14T12:36:22.781Z,31.20
2018-07-14T12:38:51.246Z,31.60
2018-07-14T12:41:19.730Z,31.70
2018-07-14T12:43:48.191Z,32.00
2018-07-14T12:46:16.720Z,32.00
2018-07-14T12:48:45.173Z,32.30
2018-07-14T12:51:13.653Z,32.40
2018-07-14T12:53:42.128Z,32.50
2018-07-14T12:56:10.599Z,32.20
2018-07-14T12:58:39.093Z,32.30
2018-07-14T13:01:07.911Z,31.80
2018-07-14T13:03:36.758Z,32.20
2018-07-14T13:06:05.831Z,31.90
2018-07-14T13:08:34.322Z,32.10
2018-07-14T13:11:02.825Z,32.30
2018-07-14T13:13:31.366Z,32.40
2018-07-14T13:15:59.871Z,32.60
2018-07-14T13:18:28.377Z,32.30
2018-07-14T13:20:57.559Z,32.20
2018-07-14T13:23:26.068Z,32.10
2018-07-14T13:25:54.541Z,32.20
2018-07-14T13:28:23.024Z,32.30
2018-07-14T13:30:51.807Z,32.60
2018-07-14T13:33:20.327Z,32.70
2018-07-14T13:35:48.779Z,32.60
2018-07-14T13:38:17.282Z,32.30
2018-07-14T13:40:45.755Z,32.10
2018-07-14T13:43:14.540Z,32.10
2018-07-14T13:45:43.057Z,32.30
2018-07-14T13:48:13.610Z,32.30
2018-07-14T13:50:42.361Z,32.40
2018-07-14T13:53:10.870Z,32.30
2018-07-14T13:55:39.686Z,31.90
2018-07-14T13:58:08.236Z,32.10
2018-07-14T14:00:36.717Z,32.30
2018-07-14T14:03:05.532Z,32.10
2018-07-14T14:05:34.294Z,32.10
2018-07-14T14:08:02.782Z,32.10
2018-07-14T14:10:31.252Z,32.40
2018-07-14T14:12:59.736Z,32.40
2018-07-14T14:15:28.273Z,32.60
2018-07-14T14:17:56.763Z,32.50
2018-07-14T14:20:25.225Z,32.00
2018-07-14T14:22:53.713Z,31.40
2018-07-14T14:25:22.180Z,31.30
2018-07-14T14:27:50.658Z,31.40
2018-07-14T14:30:19.154Z,31.80
2018-07-14T14:32:47.647Z,31.70
2018-07-14T14:35:16.094Z,31.30
2018-07-14T14:37:44.602Z,31.70
2018-07-14T14:40:13.080Z,32.10
2018-07-14T14:42:41.583Z,32.10
2018-07-14T14:47:38.271Z,31.90
2018-07-14T14:50:06.740Z,32.00
2018-07-14T14:52:35.496Z,32.20
2018-07-14T14:55:04.016Z,32.00
2018-07-14T14:57:32.530Z,32.00
2018-07-14T15:00:01.027Z,32.10
2018-07-14T15:02:30.667Z,32.00
2018-07-14T15:05:00.895Z,31.80
2018-07-14T15:07:29.463Z,31.70
2018-07-14T15:09:58.267Z,32.40
2018-07-14T15:12:26.843Z,32.70
2018-07-14T15:14:55.735Z,32.70
2018-07-14T15:17:24.331Z,32.40
2018-07-14T15:19:53.467Z,32.60
2018-07-14T15:22:22.249Z,32.40
2018-07-14T15:24:51.027Z,32.60
2018-07-14T15:27:19.845Z,32.90
2018-07-14T15:29:48.324Z,32.90
2018-07-14T15:32:16.887Z,32.70
2018-07-14T15:34:45.354Z,32.80
2018-07-14T15:37:13.816Z,33.30
2018-07-14T15:39:42.337Z,32.90
2018-07-14T15:42:11.459Z,32.70
2018-07-14T15:44:40.275Z,32.10
2018-07-14T15:47:08.770Z,31.90
2018-07-14T15:49:37.313Z,31.70
2018-07-14T15:52:06.414Z,31.30
2018-07-14T15:54:34.933Z,31.10
2018-07-14T15:57:03.408Z,30.80
2018-07-14T15:59:31.958Z,30.70
2018-07-14T16:02:00.436Z,30.80
2018-07-14T16:04:28.939Z,31.00
2018-07-14T16:06:57.406Z,30.70
2018-07-14T16:09:26.221Z,30.60
2018-07-14T16:11:54.716Z,30.40
2018-07-14T16:14:23.234Z,30.30
2018-07-14T16:16:51.694Z,30.40
2018-07-14T16:19:20.210Z,29.90
2018-07-14T16:21:48.825Z,29.70
2018-07-14T16:24:17.400Z,29.60
2018-07-14T16:26:45.912Z,29.50
2018-07-14T16:29:14.397Z,29.30
2018-07-14T16:31:42.864Z,29.10
2018-07-14T16:34:11.370Z,29.20
2018-07-14T16:36:39.835Z,29.10
2018-07-14T16:39:09.317Z,29.00
2018-07-14T16:41:37.927Z,28.90
2018-07-14T16:44:06.492Z,29.10
2018-07-14T16:46:35.003Z,29.30
2018-07-14T16:49:03.511Z,29.40
2018-07-14T16:51:32.000Z,29.30
2018-07-14T16:54:00.473Z,29.50
2018-07-14T16:56:29.240Z,29.60
2018-07-14T17:01:25.941Z,29.50
2018-07-14T17:03:54.733Z,29.40
2018-07-14T17:06:23.215Z,29.30
2018-07-14T17:08:51.671Z,29.20
2018-07-14T17:11:20.108Z,28.90
2018-07-14T17:13:48.618Z,28.80
2018-07-14T17:18:45.542Z,28.80
2018-07-14T17:21:13.977Z,28.80
2018-07-14T17:23:42.458Z,28.80
2018-07-14T17:26:10.908Z,28.70
2018-07-14T17:28:39.560Z,28.70
2018-07-14T17:31:07.998Z,28.70
2018-07-14T17:33:37.042Z,28.70
2018-07-14T17:36:05.533Z,28.70
2018-07-14T17:38:34.329Z,28.50
2018-07-14T17:41:03.143Z,28.40
2018-07-14T17:43:32.047Z,28.10
2018-07-14T17:46:00.560Z,28.00
2018-07-14T17:48:29.652Z,28.00
2018-07-14T17:50:58.112Z,27.90
2018-07-14T17:55:55.067Z,27.80
2018-07-14T17:58:23.523Z,27.70
2018-07-14T18:00:52.374Z,27.60
2018-07-14T18:03:21.030Z,27.60
2018-07-14T18:05:49.822Z,27.60
2018-07-14T18:08:19.197Z,27.60
2018-07-14T18:10:47.722Z,27.50
2018-07-14T18:13:16.154Z,27.30
2018-07-14T18:18:12.828Z,27.30
2018-07-14T18:20:41.319Z,27.10
2018-07-14T18:23:09.834Z,27.20
2018-07-14T18:25:38.338Z,27.20
2018-07-14T18:28:07.147Z,27.10
2018-07-14T18:30:35.935Z,27.00
2018-07-14T18:33:04.480Z,26.90
2018-07-14T18:35:33.243Z,26.90
2018-07-14T18:38:01.764Z,26.80
2018-07-14T18:40:30.259Z,26.50
2018-07-14T18:42:58.996Z,26.50
2018-07-14T18:45:27.498Z,26.30
2018-07-14T18:47:56.290Z,26.20
2018-07-14T18:50:24.811Z,26.10
2018-07-14T18:52:53.590Z,26.10
2018-07-14T18:55:22.076Z,26.00
2018-07-14T18:57:50.547Z,25.90
2018-07-14T19:00:19.115Z,25.80
2018-07-14T19:02:47.990Z,25.70
2018-07-14T19:05:16.433Z,26.20
2018-07-14T19:07:44.891Z,26.10
2018-07-14T19:10:13.496Z,25.70
2018-07-14T19:12:42.041Z,25.50
2018-07-14T19:15:10.595Z,25.10
2018-07-14T19:17:39.052Z,24.90
2018-07-14T19:20:08.074Z,24.70
2018-07-14T19:22:36.825Z,24.70
2018-07-14T19:25:05.360Z,24.80
2018-07-14T19:27:33.844Z,24.70
2018-07-14T19:30:02.329Z,24.60
2018-07-14T19:32:30.791Z,24.50
2018-07-14T19:34:59.285Z,24.40
2018-07-14T19:37:27.760Z,24.30
2018-07-14T19:39:56.248Z,24.20
2018-07-14T19:42:24.712Z,24.10
2018-07-14T19:44:54.041Z,24.00
2018-07-14T19:47:22.675Z,23.90
2018-07-14T19:49:51.207Z,23.90
2018-07-14T19:52:19.696Z,24.30
2018-07-14T19:54:48.728Z,24.40
2018-07-14T19:57:17.334Z,24.10
2018-07-14T19:59:45.826Z,23.90
2018-07-14T20:02:14.283Z,24.10
2018-07-14T20:04:43.032Z,24.10
2018-07-14T20:07:11.832Z,23.80
2018-07-14T20:09:40.337Z,23.50
2018-07-14T20:12:08.839Z,23.60
2018-07-14T20:14:37.427Z,23.60
2018-07-14T20:17:05.992Z,23.60
2018-07-14T20:19:34.507Z,23.60
2018-07-14T20:22:03.079Z,23.50
2018-07-14T20:27:00.062Z,23.30
2018-07-14T20:29:28.836Z,23.30
2018-07-14T20:31:57.595Z,23.10
2018-07-14T20:34:26.042Z,23.20
2018-07-14T20:36:55.066Z,23.30
2018-07-14T20:39:23.523Z,23.30
2018-07-14T20:41:52.443Z,23.20
2018-07-14T20:44:21.075Z,23.20
2018-07-14T20:46:49.579Z,23.20
2018-07-14T20:49:18.039Z,23.10
2018-07-14T20:51:46.525Z,23.00
2018-07-14T20:54:15.003Z,23.00
2018-07-14T20:56:43.493Z,22.90
2018-07-14T20:59:12.004Z,22.80
2018-07-14T21:01:40.472Z,22.80
2018-07-14T21:04:08.947Z,22.80
2018-07-14T21:06:37.742Z,22.80
2018-07-14T21:09:06.911Z,22.80
2018-07-14T21:11:35.585Z,22.70
2018-07-14T21:14:04.316Z,22.70
2018-07-14T21:16:32.837Z,22.70
2018-07-14T21:19:01.278Z,22.70
2018-07-14T21:21:29.840Z,22.60
2018-07-14T21:23:58.607Z,22.50
2018-07-14T21:26:27.154Z,22.50
2018-07-14T21:28:55.883Z,22.40
2018-07-14T21:31:24.687Z,22.40
2018-07-14T21:33:53.162Z,22.40
2018-07-14T21:36:21.725Z,22.50
2018-07-14T21:38:50.163Z,22.40
2018-07-14T21:41:18.651Z,22.50
2018-07-14T21:43:47.104Z,22.40
2018-07-14T21:46:15.681Z,22.50
2018-07-14T21:48:44.151Z,22.30
2018-07-14T21:51:12.655Z,22.20
2018-07-14T21:53:41.118Z,22.30
2018-07-14T21:56:09.877Z,22.30
2018-07-14T21:58:38.639Z,22.20
2018-07-14T22:01:12.513Z,22.20
2018-07-14T22:03:41.001Z,22.00
2018-07-14T22:06:09.485Z,22.10
2018-07-14T22:08:37.970Z,22.00
2018-07-14T22:11:06.477Z,21.90
2018-07-14T22:13:34.938Z,21.80
2018-07-14T22:16:03.671Z,21.80
2018-07-14T22:18:32.144Z,21.70
2018-07-14T22:21:00.590Z,21.60
2018-07-14T22:23:29.320Z,21.80
2018-07-14T22:25:57.783Z,21.90
2018-07-14T22:28:26.520Z,21.60
2018-07-14T22:30:54.991Z,21.60
2018-07-14T22:33:23.434Z,21.50
2018-07-14T22:35:51.907Z,21.40
2018-07-14T22:38:20.339Z,21.40
2018-07-14T22:40:48.807Z,21.50
2018-07-14T22:43:17.268Z,21.40
2018-07-14T22:45:45.741Z,21.20
2018-07-14T22:48:14.170Z,21.20
2018-07-14T22:50:42.637Z,21.10
2018-07-14T22:53:11.099Z,21.20
2018-07-14T22:55:39.573Z,21.10
2018-07-14T22:58:08.326Z,21.00
2018-07-14T23:00:36.768Z,21.10
2018-07-14T23:03:05.383Z,21.00
2018-07-14T23:05:34.110Z,21.00
2018-07-14T23:08:02.585Z,21.10
2018-07-14T23:10:31.023Z,21.00
2018-07-14T23:12:59.473Z,20.90
2018-07-14T23:15:27.973Z,20.90
2018-07-14T23:17:56.476Z,20.90
2018-07-14T23:20:24.942Z,20.80
2018-07-14T23:22:54.307Z,20.80
2018-07-14T23:25:22.783Z,20.70
2018-07-14T23:27:51.259Z,20.70
2018-07-14T23:30:20.019Z,20.70
2018-07-14T23:32:48.518Z,20.70
2018-07-14T23:35:17.031Z,20.60
2018-07-14T23:37:45.703Z,20.60
2018-07-14T23:40:14.359Z,20.70
2018-07-14T23:42:42.870Z,20.60
2018-07-14T23:45:11.354Z,20.40
2018-07-14T23:47:39.823Z,20.40
2018-07-14T23:50:08.304Z,20.40
2018-07-14T23:52:36.778Z,20.40
2018-07-14T23:55:06.326Z,20.40
2018-07-14T23:57:34.824Z,20.50
